Time,TemperatureF,DewpointF,PressureIn,WindDirection,WindDirectionDegrees,WindSpeedMPH,WindSpeedGustMPH,Humidity,HourlyPrecipIn,Conditions,Clouds,dailyrainin,SolarRadiationWatts/m^2,SoftwareType,DateUTC
2013-04-13 00:23:00,56.0,39.0,-100.00,WSW,252,3.0,10.0,52,0.00,,,0.00,1.000000,,2013-04-13 07:23:00,
2013-04-13 00:34:00,56.0,39.0,-100.00,WSW,252,3.0,10.0,52,0.00,,,0.00,1.000000,,2013-04-13 07:34:00,
2013-04-13 00:44:00,56.0,39.0,-100.00,WSW,252,3.0,10.0,52,0.00,,,0.00,1.000000,,2013-04-13 07:44:00,
2013-04-13 00:53:00,56.0,39.0,-100.00,WSW,252,3.0,10.0,52,0.00,,,0.00,1.000000,,2013-04-13 07:53:00,
2013-04-13 01:24:00,56.0,38.0,-100.00,WSW,256,4.0,10.0,50,0.00,,,0.00,1.000000,,2013-04-13 08:24:00,
2013-04-13 01:34:00,56.0,38.0,-100.00,WSW,256,4.0,10.0,50,0.00,,,0.00,1.000000,,2013-04-13 08:34:00,
2013-04-13 01:44:00,56.0,38.0,-100.00,WSW,256,4.0,10.0,50,0.00,,,0.00,1.000000,,2013-04-13 08:44:00,
2013-04-13 01:53:00,56.0,38.0,-100.00,WSW,256,4.0,10.0,50,0.00,,,0.00,1.000000,,2013-04-13 08:53:00,
2013-04-13 02:23:00,54.0,39.0,-100.00,SW,219,4.0,9.0,56,0.00,,,0.00,1.000000,,2013-04-13 09:23:00,
2013-04-13 02:35:00,54.0,39.0,-100.00,SW,219,4.0,9.0,56,0.00,,,0.00,1.000000,,2013-04-13 09:35:00,
2013-04-13 02:46:00,54.0,39.0,-100.00,SW,219,4.0,9.0,56,0.00,,,0.00,1.000000,,2013-04-13 09:46:00,
2013-04-13 02:53:00,54.0,39.0,-100.00,SW,219,4.0,9.0,56,0.00,,,0.00,1.000000,,2013-04-13 09:53:00,
2013-04-13 03:24:00,53.0,42.0,-100.00,SSW,199,4.0,6.0,65,0.00,,,0.00,1.000000,,2013-04-13 10:24:00,
2013-04-13 03:35:00,53.0,42.0,-100.00,SSW,199,4.0,6.0,65,0.00,,,0.00,1.000000,,2013-04-13 10:35:00,
2013-04-13 03:45:00,53.0,42.0,-100.00,SSW,199,4.0,6.0,65,0.00,,,0.00,1.000000,,2013-04-13 10:45:00,
2013-04-13 03:53:00,53.0,42.0,-100.00,SSW,199,4.0,6.0,65,0.00,,,0.00,1.000000,,2013-04-13 10:53:00,
2013-04-13 04:23:00,52.0,40.0,-100.00,SSW,198,5.0,7.0,64,0.00,,,0.00,1.000000,,2013-04-13 11:23:00,
2013-04-13 04:33:00,52.0,40.0,-100.00,SSW,198,5.0,7.0,64,0.00,,,0.00,1.000000,,2013-04-13 11:33:00,
2013-04-13 04:44:00,52.0,40.0,-100.00,SSW,198,5.0,7.0,64,0.00,,,0.00,1.000000,,2013-04-13 11:44:00,
2013-04-13 04:52:00,52.0,40.0,-100.00,SSW,198,5.0,7.0,64,0.00,,,0.00,1.000000,,2013-04-13 11:52:00,
2013-04-13 05:34:00,53.0,38.0,-100.00,SSW,207,11.0,14.0,57,0.00,,,0.00,1.000000,,2013-04-13 12:34:00,
2013-04-13 05:45:00,53.0,38.0,-100.00,SSW,207,11.0,14.0,57,0.00,,,0.00,1.000000,,2013-04-13 12:45:00,
2013-04-13 05:53:00,53.0,38.0,-100.00,SSW,207,11.0,14.0,57,0.00,,,0.00,1.000000,,2013-04-13 12:53:00,
2013-04-13 06:24:00,52.0,39.0,-100.00,SSW,202,15.0,20.0,62,0.00,,,0.00,1.000000,,2013-04-13 13:24:00,
2013-04-13 06:33:00,52.0,39.0,-100.00,SSW,202,15.0,20.0,62,0.00,,,0.00,1.000000,,2013-04-13 13:33:00,
2013-04-13 06:45:00,52.0,39.0,-100.00,SSW,202,15.0,20.0,62,0.00,,,0.00,1.000000,,2013-04-13 13:45:00,
2013-04-13 06:53:00,52.0,39.0,-100.00,SSW,202,15.0,20.0,62,0.00,,,0.00,1.000000,,2013-04-13 13:53:00,
2013-04-13 07:23:00,53.0,40.0,-100.00,SSW,202,18.0,21.0,61,0.00,,,0.00,20.000000,,2013-04-13 14:23:00,
2013-04-13 07:35:00,53.0,40.0,-100.00,SSW,202,18.0,21.0,61,0.00,,,0.00,20.000000,,2013-04-13 14:35:00,
2013-04-13 07:54:00,53.0,40.0,-100.00,SSW,202,18.0,21.0,61,0.00,,,0.00,20.000000,,2013-04-13 14:54:00,
2013-04-13 08:26:00,54.0,38.0,-100.00,SSW,196,16.0,22.0,54,0.00,,,0.00,192.000000,,2013-04-13 15:26:00,
2013-04-13 08:34:00,54.0,38.0,-100.00,SSW,196,16.0,22.0,54,0.00,,,0.00,192.000000,,2013-04-13 15:34:00,
2013-04-13 08:43:00,54.0,38.0,-100.00,SSW,196,16.0,22.0,54,0.00,,,0.00,192.000000,,2013-04-13 15:43:00,
2013-04-13 08:53:00,54.0,38.0,-100.00,SSW,196,16.0,22.0,54,0.00,,,0.00,192.000000,,2013-04-13 15:53:00,
2013-04-13 09:34:00,55.0,41.0,-100.00,SSW,193,15.0,22.0,60,0.00,,,0.00,463.000000,,2013-04-13 16:34:00,
2013-04-13 09:44:00,55.0,41.0,-100.00,SSW,193,15.0,22.0,60,0.00,,,0.00,463.000000,,2013-04-13 16:44:00,
2013-04-13 09:53:00,55.0,41.0,-100.00,SSW,193,15.0,22.0,60,0.00,,,0.00,463.000000,,2013-04-13 16:53:00,
2013-04-13 10:24:00,59.0,43.0,-100.00,South,185,16.0,22.0,56,0.00,,,0.00,600.000000,,2013-04-13 17:24:00,
2013-04-13 10:35:00,59.0,43.0,-100.00,South,185,16.0,22.0,56,0.00,,,0.00,600.000000,,2013-04-13 17:35:00,
2013-04-13 10:43:00,59.0,43.0,-100.00,South,185,16.0,22.0,56,0.00,,,0.00,600.000000,,2013-04-13 17:43:00,
2013-04-13 10:56:00,59.0,43.0,-100.00,South,185,16.0,22.0,56,0.00,,,0.00,600.000000,,2013-04-13 17:56:00,
2013-04-13 11:24:00,60.0,41.0,-100.00,South,189,12.0,24.0,50,0.00,,,0.00,484.000000,,2013-04-13 18:24:00,
2013-04-13 11:32:00,60.0,41.0,-100.00,South,189,12.0,24.0,50,0.00,,,0.00,484.000000,,2013-04-13 18:32:00,
2013-04-13 11:42:00,60.0,41.0,-100.00,South,189,12.0,24.0,50,0.00,,,0.00,484.000000,,2013-04-13 18:42:00,
2013-04-13 11:52:00,60.0,41.0,-100.00,South,189,12.0,24.0,50,0.00,,,0.00,484.000000,,2013-04-13 18:52:00,
2013-04-13 12:32:00,65.0,43.0,-100.00,South,176,13.0,20.0,45,0.00,,,0.00,617.000000,,2013-04-13 19:32:00,
2013-04-13 12:42:00,65.0,43.0,-100.00,South,176,13.0,20.0,45,0.00,,,0.00,617.000000,,2013-04-13 19:42:00,
2013-04-13 12:52:00,65.0,43.0,-100.00,South,176,13.0,20.0,45,0.00,,,0.00,617.000000,,2013-04-13 19:52:00,
2013-04-13 13:32:00,62.0,42.0,-100.00,South,191,17.0,25.0,48,0.00,,,0.00,1006.000000,,2013-04-13 20:32:00,
2013-04-13 13:42:00,62.0,42.0,-100.00,South,191,17.0,25.0,48,0.00,,,0.00,1006.000000,,2013-04-13 20:42:00,
2013-04-13 13:52:00,62.0,42.0,-100.00,South,191,17.0,25.0,48,0.00,,,0.00,1006.000000,,2013-04-13 20:52:00,
2013-04-13 14:22:00,64.0,44.0,-100.00,South,183,17.0,24.0,49,0.00,,,0.00,1085.000000,,2013-04-13 21:22:00,
2013-04-13 14:32:00,64.0,44.0,-100.00,South,183,17.0,24.0,49,0.00,,,0.00,1085.000000,,2013-04-13 21:32:00,
2013-04-13 14:43:00,64.0,44.0,-100.00,South,183,17.0,24.0,49,0.00,,,0.00,1085.000000,,2013-04-13 21:43:00,
2013-04-13 14:52:00,64.0,44.0,-100.00,South,183,17.0,24.0,49,0.00,,,0.00,1085.000000,,2013-04-13 21:52:00,
2013-04-13 15:33:00,62.0,43.0,-100.00,South,188,19.0,27.0,50,0.00,,,0.00,1012.000000,,2013-04-13 22:33:00,
2013-04-13 15:42:00,62.0,43.0,-100.00,South,188,19.0,27.0,50,0.00,,,0.00,1012.000000,,2013-04-13 22:42:00,
2013-04-13 15:52:00,62.0,43.0,-100.00,South,188,19.0,27.0,50,0.00,,,0.00,1012.000000,,2013-04-13 22:52:00,
2013-04-13 16:32:00,62.0,44.0,-100.00,South,183,20.0,27.0,52,0.00,,,0.00,859.000000,,2013-04-13 23:32:00,
2013-04-13 16:41:00,62.0,44.0,-100.00,South,183,20.0,27.0,52,0.00,,,0.00,859.000000,,2013-04-13 23:41:00,
2013-04-13 16:52:00,62.0,44.0,-100.00,South,183,20.0,27.0,52,0.00,,,0.00,859.000000,,2013-04-13 23:52:00,
2013-04-13 17:22:00,60.0,47.0,-100.00,South,183,17.0,27.0,62,0.00,,,0.00,656.000000,,2013-04-14 00:22:00,
2013-04-13 17:32:00,60.0,47.0,-100.00,South,183,17.0,27.0,62,0.00,,,0.00,656.000000,,2013-04-14 00:32:00,
2013-04-13 17:42:00,60.0,47.0,-100.00,South,183,17.0,27.0,62,0.00,,,0.00,656.000000,,2013-04-14 00:42:00,
2013-04-13 17:52:00,60.0,47.0,-100.00,South,183,17.0,27.0,62,0.00,,,0.00,656.000000,,2013-04-14 00:52:00,
2013-04-13 18:32:00,55.0,46.0,-100.00,SSW,192,15.0,23.0,71,0.00,,,0.00,423.000000,,2013-04-14 01:32:00,
2013-04-13 18:42:00,55.0,46.0,-100.00,SSW,192,15.0,23.0,71,0.00,,,0.00,423.000000,,2013-04-14 01:42:00,
2013-04-13 18:52:00,55.0,46.0,-100.00,SSW,192,15.0,23.0,71,0.00,,,0.00,423.000000,,2013-04-14 01:52:00,
2013-04-13 19:22:00,51.0,47.0,-100.00,South,189,16.0,21.0,86,0.00,,,0.00,118.000000,,2013-04-14 02:22:00,
2013-04-13 19:32:00,51.0,47.0,-100.00,South,189,16.0,21.0,86,0.00,,,0.00,118.000000,,2013-04-14 02:32:00,
2013-04-13 19:42:00,51.0,47.0,-100.00,South,189,16.0,21.0,86,0.00,,,0.00,118.000000,,2013-04-14 02:42:00,
2013-04-13 19:52:00,51.0,47.0,-100.00,South,189,16.0,21.0,86,0.00,,,0.00,118.000000,,2013-04-14 02:52:00,
2013-04-13 20:22:00,48.0,47.0,-100.00,South,187,15.0,21.0,96,0.00,,,0.00,13.000000,,2013-04-14 03:22:00,
2013-04-13 20:33:00,48.0,47.0,-100.00,South,187,15.0,21.0,96,0.00,,,0.00,13.000000,,2013-04-14 03:33:00,
2013-04-13 20:42:00,48.0,47.0,-100.00,South,187,15.0,21.0,96,0.00,,,0.00,13.000000,,2013-04-14 03:42:00,
2013-04-13 20:53:00,48.0,47.0,-100.00,South,187,15.0,21.0,96,0.00,,,0.00,13.000000,,2013-04-14 03:53:00,
2013-04-13 21:23:00,46.0,45.0,-100.00,South,184,18.0,24.0,97,0.00,,,0.00,1.000000,,2013-04-14 04:23:00,
2013-04-13 21:32:00,46.0,45.0,-100.00,South,184,18.0,24.0,97,0.00,,,0.00,1.000000,,2013-04-14 04:32:00,
2013-04-13 21:42:00,46.0,45.0,-100.00,South,184,18.0,24.0,97,0.00,,,0.00,1.000000,,2013-04-14 04:42:00,
2013-04-13 21:52:00,46.0,45.0,-100.00,South,184,18.0,24.0,97,0.00,,,0.00,1.000000,,2013-04-14 04:52:00,
2013-04-13 22:22:00,48.0,41.0,-100.00,SSW,201,17.0,23.0,78,0.00,,,0.00,1.000000,,2013-04-14 05:22:00,
2013-04-13 22:32:00,48.0,41.0,-100.00,SSW,201,17.0,23.0,78,0.00,,,0.00,1.000000,,2013-04-14 05:32:00,
2013-04-13 22:42:00,48.0,41.0,-100.00,SSW,201,17.0,23.0,78,0.00,,,0.00,1.000000,,2013-04-14 05:42:00,
2013-04-13 22:52:00,48.0,41.0,-100.00,SSW,201,17.0,23.0,78,0.00,,,0.00,1.000000,,2013-04-14 05:52:00,
2013-04-13 23:22:00,47.0,45.0,-100.00,SSW,204,19.0,24.0,92,0.00,,,0.00,1.000000,,2013-04-14 06:22:00,
2013-04-13 23:32:00,47.0,45.0,-100.00,SSW,204,19.0,24.0,92,0.00,,,0.00,1.000000,,2013-04-14 06:32:00,
2013-04-13 23:42:00,47.0,45.0,-100.00,SSW,204,19.0,24.0,92,0.00,,,0.00,1.000000,,2013-04-14 06:42:00,
2013-04-13 23:52:00,47.0,45.0,-100.00,SSW,204,19.0,24.0,92,0.00,,,0.00,1.000000,,2013-04-14 06:52:00,